sensor_id;sensor_type;location;lat;lon;timestamp;pressure;altitude;pressure_sealevel;temperature;humidity
72585;BME280;60618;40.084;32.908;2023-08-06T00:00:57;89018.25;;;25.57;22.96
72585;BME280;60618;40.084;32.908;2023-08-06T00:03:24;89011.78;;;25.62;23.02
72585;BME280;60618;40.084;32.908;2023-08-06T00:05:52;89015.00;;;25.30;23.44
72585;BME280;60618;40.084;32.908;2023-08-06T00:08:19;89010.69;;;24.88;23.81
72585;BME280;60618;40.084;32.908;2023-08-06T00:10:47;89015.13;;;24.93;23.56
72585;BME280;60618;40.084;32.908;2023-08-06T00:13:14;89015.41;;;24.87;24.11
72585;BME280;60618;40.084;32.908;2023-08-06T00:15:41;89013.88;;;25.04;23.76
72585;BME280;60618;40.084;32.908;2023-08-06T00:18:08;89010.44;;;25.13;23.87
72585;BME280;60618;40.084;32.908;2023-08-06T00:20:39;89010.16;;;25.18;23.65
72585;BME280;60618;40.084;32.908;2023-08-06T00:23:06;89011.13;;;25.23;23.46
72585;BME280;60618;40.084;32.908;2023-08-06T00:25:33;89013.56;;;25.29;23.68
72585;BME280;60618;40.084;32.908;2023-08-06T00:28:00;89005.97;;;25.27;23.37
72585;BME280;60618;40.084;32.908;2023-08-06T00:30:27;89012.13;;;25.28;23.45
72585;BME280;60618;40.084;32.908;2023-08-06T00:32:54;89011.84;;;25.24;23.36
72585;BME280;60618;40.084;32.908;2023-08-06T00:35:21;89004.69;;;25.28;23.49
72585;BME280;60618;40.084;32.908;2023-08-06T00:37:47;89008.84;;;25.29;23.58
72585;BME280;60618;40.084;32.908;2023-08-06T00:40:15;89012.41;;;25.32;23.57
72585;BME280;60618;40.084;32.908;2023-08-06T00:42:41;89021.28;;;25.42;23.64
72585;BME280;60618;40.084;32.908;2023-08-06T00:45:09;89023.00;;;25.47;23.53
72585;BME280;60618;40.084;32.908;2023-08-06T00:47:36;89013.72;;;25.31;23.85
72585;BME280;60618;40.084;32.908;2023-08-06T00:50:03;89015.72;;;25.21;23.69
72585;BME280;60618;40.084;32.908;2023-08-06T00:52:30;89006.69;;;25.28;23.91
72585;BME280;60618;40.084;32.908;2023-08-06T00:54:57;89016.16;;;25.27;24.36
72585;BME280;60618;40.084;32.908;2023-08-06T00:57:24;89000.78;;;25.31;23.83
72585;BME280;60618;40.084;32.908;2023-08-06T00:59:53;89005.81;;;25.35;24.01
72585;BME280;60618;40.084;32.908;2023-08-06T01:02:20;89008.53;;;24.96;24.76
72585;BME280;60618;40.084;32.908;2023-08-06T01:04:47;89003.81;;;25.06;24.49
72585;BME280;60618;40.084;32.908;2023-08-06T01:07:26;89008.66;;;24.98;24.58
72585;BME280;60618;40.084;32.908;2023-08-06T01:10:19;89003.09;;;25.06;24.29
72585;BME280;60618;40.084;32.908;2023-08-06T01:13:11;88999.84;;;25.07;24.23
72585;BME280;60618;40.084;32.908;2023-08-06T01:15:46;89002.69;;;25.09;25.24
72585;BME280;60618;40.084;32.908;2023-08-06T01:18:13;88998.38;;;25.06;25.47
72585;BME280;60618;40.084;32.908;2023-08-06T01:20:40;88999.84;;;25.07;25.69
72585;BME280;60618;40.084;32.908;2023-08-06T01:23:08;89002.66;;;24.71;25.28
72585;BME280;60618;40.084;32.908;2023-08-06T01:26:13;88994.19;;;24.76;25.21
72585;BME280;60618;40.084;32.908;2023-08-06T01:29:14;88992.63;;;24.83;25.19
72585;BME280;60618;40.084;32.908;2023-08-06T01:31:41;89000.81;;;24.92;24.81
72585;BME280;60618;40.084;32.908;2023-08-06T01:34:17;88993.47;;;24.95;24.78
72585;BME280;60618;40.084;32.908;2023-08-06T01:36:47;88990.19;;;24.97;25.05
72585;BME280;60618;40.084;32.908;2023-08-06T01:39:14;88990.91;;;24.97;24.89
72585;BME280;60618;40.084;32.908;2023-08-06T01:41:41;88987.47;;;24.87;25.28
72585;BME280;60618;40.084;32.908;2023-08-06T01:44:08;88991.34;;;24.65;25.74
72585;BME280;60618;40.084;32.908;2023-08-06T01:46:35;88990.31;;;24.60;26.39
72585;BME280;60618;40.084;32.908;2023-08-06T01:49:02;88984.16;;;24.59;26.89
72585;BME280;60618;40.084;32.908;2023-08-06T01:51:29;88989.91;;;24.63;26.36
72585;BME280;60618;40.084;32.908;2023-08-06T01:53:56;88987.47;;;24.68;26.42
72585;BME280;60618;40.084;32.908;2023-08-06T01:56:23;88989.03;;;24.61;26.38
72585;BME280;60618;40.084;32.908;2023-08-06T01:58:50;88987.31;;;24.56;26.84
72585;BME280;60618;40.084;32.908;2023-08-06T02:01:17;88990.31;;;24.50;26.72
72585;BME280;60618;40.084;32.908;2023-08-06T02:03:44;88991.88;;;24.44;26.67
72585;BME280;60618;40.084;32.908;2023-08-06T02:06:11;88991.44;;;24.38;27.14
72585;BME280;60618;40.084;32.908;2023-08-06T02:08:38;88983.38;;;24.30;27.04
72585;BME280;60618;40.084;32.908;2023-08-06T02:11:05;88986.25;;;24.32;27.27
72585;BME280;60618;40.084;32.908;2023-08-06T02:13:32;88979.53;;;24.33;27.29
72585;BME280;60618;40.084;32.908;2023-08-06T02:15:59;88989.13;;;24.34;26.85
72585;BME280;60618;40.084;32.908;2023-08-06T02:18:26;88992.03;;;24.36;27.08
72585;BME280;60618;40.084;32.908;2023-08-06T02:20:59;88987.69;;;24.33;27.44
72585;BME280;60618;40.084;32.908;2023-08-06T02:23:27;88993.13;;;24.33;27.24
72585;BME280;60618;40.084;32.908;2023-08-06T02:26:02;88992.97;;;24.31;27.32
72585;BME280;60618;40.084;32.908;2023-08-06T02:28:30;88992.53;;;24.25;27.54
72585;BME280;60618;40.084;32.908;2023-08-06T02:30:58;88997.56;;;24.28;27.47
72585;BME280;60618;40.084;32.908;2023-08-06T02:33:25;88996.84;;;24.28;27.48
72585;BME280;60618;40.084;32.908;2023-08-06T02:35:59;88999.72;;;24.30;27.07
72585;BME280;60618;40.084;32.908;2023-08-06T02:38:26;89001.13;;;24.31;27.11
72585;BME280;60618;40.084;32.908;2023-08-06T02:40:53;89001.56;;;24.27;27.59
72585;BME280;60618;40.084;32.908;2023-08-06T02:43:20;89001.72;;;24.29;27.21
72585;BME280;60618;40.084;32.908;2023-08-06T02:45:47;89000.69;;;24.25;27.36
72585;BME280;60618;40.084;32.908;2023-08-06T02:48:14;89002.13;;;24.26;27.20
72585;BME280;60618;40.084;32.908;2023-08-06T02:50:41;89005.38;;;24.15;28.09
72585;BME280;60618;40.084;32.908;2023-08-06T02:53:08;89001.38;;;24.16;27.23
72585;BME280;60618;40.084;32.908;2023-08-06T02:55:36;89007.72;;;24.18;27.68
72585;BME280;60618;40.084;32.908;2023-08-06T02:58:03;88994.81;;;24.19;27.47
72585;BME280;60618;40.084;32.908;2023-08-06T03:00:30;89008.69;;;24.13;27.76
72585;BME280;60618;40.084;32.908;2023-08-06T03:02:57;89010.97;;;24.17;27.82
72585;BME280;60618;40.084;32.908;2023-08-06T03:05:24;89007.72;;;24.18;27.79
72585;BME280;60618;40.084;32.908;2023-08-06T03:07:51;89015.16;;;24.18;27.52
72585;BME280;60618;40.084;32.908;2023-08-06T03:10:18;89007.13;;;24.20;28.02
72585;BME280;60618;40.084;32.908;2023-08-06T03:12:45;89017.03;;;24.25;27.92
72585;BME280;60618;40.084;32.908;2023-08-06T03:15:12;89003.72;;;24.29;27.76
72585;BME280;60618;40.084;32.908;2023-08-06T03:17:39;89012.34;;;24.35;27.52
72585;BME280;60618;40.084;32.908;2023-08-06T03:20:06;89014.91;;;24.33;27.87
72585;BME280;60618;40.084;32.908;2023-08-06T03:22:33;89017.28;;;24.10;28.37
72585;BME280;60618;40.084;32.908;2023-08-06T03:25:00;89016.53;;;23.99;28.38
72585;BME280;60618;40.084;32.908;2023-08-06T03:27:27;89022.44;;;24.15;28.08
72585;BME280;60618;40.084;32.908;2023-08-06T03:29:54;89020.97;;;24.04;28.43
72585;BME280;60618;40.084;32.908;2023-08-06T03:32:21;89021.81;;;23.97;28.42
72585;BME280;60618;40.084;32.908;2023-08-06T03:34:48;89021.19;;;23.89;29.05
72585;BME280;60618;40.084;32.908;2023-08-06T03:37:15;89020.47;;;23.89;29.04
72585;BME280;60618;40.084;32.908;2023-08-06T03:39:42;89014.59;;;23.83;29.22
72585;BME280;60618;40.084;32.908;2023-08-06T03:42:09;89019.03;;;23.88;29.06
72585;BME280;60618;40.084;32.908;2023-08-06T03:44:36;89021.97;;;23.99;28.88
72585;BME280;60618;40.084;32.908;2023-08-06T03:47:03;89016.81;;;24.03;28.73
72585;BME280;60618;40.084;32.908;2023-08-06T03:49:30;89016.13;;;24.13;28.72
72585;BME280;60618;40.084;32.908;2023-08-06T03:51:57;89020.97;;;24.04;28.87
72585;BME280;60618;40.084;32.908;2023-08-06T03:54:25;89018.78;;;23.93;29.69
72585;BME280;60618;40.084;32.908;2023-08-06T03:56:51;89020.91;;;23.85;29.97
72585;BME280;60618;40.084;32.908;2023-08-06T03:59:18;89027.34;;;23.90;30.21
72585;BME280;60618;40.084;32.908;2023-08-06T04:01:45;89023.91;;;23.89;30.28
72585;BME280;60618;40.084;32.908;2023-08-06T04:04:12;89027.09;;;23.95;30.68
72585;BME280;60618;40.084;32.908;2023-08-06T04:06:39;89020.22;;;23.94;30.59
72585;BME280;60618;40.084;32.908;2023-08-06T04:09:07;89026.72;;;24.09;30.15
72585;BME280;60618;40.084;32.908;2023-08-06T04:11:34;89026.31;;;24.22;30.02
72585;BME280;60618;40.084;32.908;2023-08-06T04:14:00;89030.88;;;24.46;29.75
72585;BME280;60618;40.084;32.908;2023-08-06T04:16:28;89030.19;;;24.65;29.79
72585;BME280;60618;40.084;32.908;2023-08-06T04:18:55;89026.88;;;24.86;29.23
72585;BME280;60618;40.084;32.908;2023-08-06T04:21:21;89029.94;;;25.09;28.73
72585;BME280;60618;40.084;32.908;2023-08-06T04:23:48;89024.91;;;25.35;28.75
72585;BME280;60618;40.084;32.908;2023-08-06T04:26:15;89026.88;;;25.63;28.45
72585;BME280;60618;40.084;32.908;2023-08-06T04:28:42;89023.50;;;25.94;28.49
72585;BME280;60618;40.084;32.908;2023-08-06T04:31:09;89025.38;;;26.22;27.87
72585;BME280;60618;40.084;32.908;2023-08-06T04:33:36;89032.19;;;26.52;27.47
72585;BME280;60618;40.084;32.908;2023-08-06T04:36:03;89035.50;;;26.72;27.13
72585;BME280;60618;40.084;32.908;2023-08-06T04:38:31;89033.31;;;26.80;27.33
72585;BME280;60618;40.084;32.908;2023-08-06T04:40:58;89039.41;;;26.91;27.08
72585;BME280;60618;40.084;32.908;2023-08-06T04:43:25;89026.16;;;27.18;26.26
72585;BME280;60618;40.084;32.908;2023-08-06T04:45:53;89022.94;;;27.55;25.90
72585;BME280;60618;40.084;32.908;2023-08-06T04:48:21;89024.25;;;27.98;25.62
72585;BME280;60618;40.084;32.908;2023-08-06T04:50:49;89032.06;;;28.37;25.60
72585;BME280;60618;40.084;32.908;2023-08-06T04:53:16;89032.78;;;28.49;25.27
72585;BME280;60618;40.084;32.908;2023-08-06T04:55:43;89024.53;;;28.73;25.16
72585;BME280;60618;40.084;32.908;2023-08-06T04:58:10;89028.69;;;28.86;24.46
72585;BME280;60618;40.084;32.908;2023-08-06T05:00:38;89021.78;;;28.73;25.05
72585;BME280;60618;40.084;32.908;2023-08-06T05:03:05;89021.09;;;28.37;24.98
72585;BME280;60618;40.084;32.908;2023-08-06T05:05:32;89021.59;;;28.34;25.14
72585;BME280;60618;40.084;32.908;2023-08-06T05:07:59;89023.72;;;28.59;25.26
72585;BME280;60618;40.084;32.908;2023-08-06T05:10:27;89019.88;;;28.87;24.69
72585;BME280;60618;40.084;32.908;2023-08-06T05:12:54;89019.66;;;29.20;24.30
72585;BME280;60618;40.084;32.908;2023-08-06T05:15:21;89021.63;;;29.43;23.47
72585;BME280;60618;40.084;32.908;2023-08-06T05:17:48;89016.50;;;29.49;23.39
72585;BME280;60618;40.084;32.908;2023-08-06T05:20:15;89021.06;;;29.70;23.60
72585;BME280;60618;40.084;32.908;2023-08-06T05:22:43;89018.13;;;29.80;23.14
72585;BME280;60618;40.084;32.908;2023-08-06T05:25:13;89018.19;;;29.93;22.81
72585;BME280;60618;40.084;32.908;2023-08-06T05:27:40;89026.13;;;30.01;22.89
72585;BME280;60618;40.084;32.908;2023-08-06T05:30:08;89014.91;;;29.46;23.95
72585;BME280;60618;40.084;32.908;2023-08-06T05:32:35;89015.00;;;28.62;25.42
72585;BME280;60618;40.084;32.908;2023-08-06T05:35:02;89018.00;;;28.54;25.08
72585;BME280;60618;40.084;32.908;2023-08-06T05:37:29;89015.03;;;28.50;25.64
72585;BME280;60618;40.084;32.908;2023-08-06T05:39:57;89018.31;;;28.84;25.08
72585;BME280;60618;40.084;32.908;2023-08-06T05:42:24;89013.09;;;28.65;25.00
72585;BME280;60618;40.084;32.908;2023-08-06T05:44:51;89013.94;;;28.55;25.60
72585;BME280;60618;40.084;32.908;2023-08-06T05:47:18;89011.09;;;28.53;25.84
72585;BME280;60618;40.084;32.908;2023-08-06T05:49:45;89008.69;;;28.48;25.80
72585;BME280;60618;40.084;32.908;2023-08-06T05:52:12;89015.13;;;28.52;26.01
72585;BME280;60618;40.084;32.908;2023-08-06T05:54:39;89008.91;;;28.87;24.68
72585;BME280;60618;40.084;32.908;2023-08-06T05:57:06;89005.31;;;28.96;24.38
72585;BME280;60618;40.084;32.908;2023-08-06T05:59:33;89006.03;;;28.85;23.85
72585;BME280;60618;40.084;32.908;2023-08-06T06:02:00;89005.19;;;29.06;24.27
72585;BME280;60618;40.084;32.908;2023-08-06T06:04:28;89005.09;;;29.66;23.73
72585;BME280;60618;40.084;32.908;2023-08-06T06:06:55;89004.16;;;30.01;22.78
72585;BME280;60618;40.084;32.908;2023-08-06T06:09:21;89006.16;;;30.12;23.01
72585;BME280;60618;40.084;32.908;2023-08-06T06:11:48;89008.94;;;30.40;22.35
72585;BME280;60618;40.084;32.908;2023-08-06T06:14:18;89001.59;;;30.44;22.57
72585;BME280;60618;40.084;32.908;2023-08-06T06:16:45;89007.31;;;30.48;22.20
72585;BME280;60618;40.084;32.908;2023-08-06T06:19:12;89014.94;;;30.50;22.29
72585;BME280;60618;40.084;32.908;2023-08-06T06:21:39;89009.56;;;30.52;22.54
72585;BME280;60618;40.084;32.908;2023-08-06T06:24:06;89007.31;;;30.48;22.54
72585;BME280;60618;40.084;32.908;2023-08-06T06:26:33;89010.28;;;30.39;22.82
72585;BME280;60618;40.084;32.908;2023-08-06T06:29:00;88999.81;;;30.10;23.19
72585;BME280;60618;40.084;32.908;2023-08-06T06:31:27;89002.84;;;30.41;21.85
72585;BME280;60618;40.084;32.908;2023-08-06T06:33:54;88998.88;;;30.86;21.57
72585;BME280;60618;40.084;32.908;2023-08-06T06:36:21;89004.44;;;31.15;21.47
72585;BME280;60618;40.084;32.908;2023-08-06T06:38:48;89002.75;;;30.94;21.30
72585;BME280;60618;40.084;32.908;2023-08-06T06:41:15;89003.44;;;31.22;21.17
72585;BME280;60618;40.084;32.908;2023-08-06T06:43:42;89002.66;;;31.49;20.58
72585;BME280;60618;40.084;32.908;2023-08-06T06:46:09;88998.38;;;31.03;20.76
72585;BME280;60618;40.084;32.908;2023-08-06T06:48:36;88994.78;;;31.00;20.82
72585;BME280;60618;40.084;32.908;2023-08-06T06:51:03;88996.53;;;31.51;20.41
72585;BME280;60618;40.084;32.908;2023-08-06T06:53:30;88993.03;;;31.94;20.72
72585;BME280;60618;40.084;32.908;2023-08-06T06:56:04;88990.19;;;31.91;20.07
72585;BME280;60618;40.084;32.908;2023-08-06T06:58:32;88992.28;;;31.34;20.86
72585;BME280;60618;40.084;32.908;2023-08-06T07:01:01;88982.63;;;31.33;20.26
72585;BME280;60618;40.084;32.908;2023-08-06T07:03:27;88988.03;;;31.17;20.94
72585;BME280;60618;40.084;32.908;2023-08-06T07:05:58;88981.72;;;31.15;20.51
72585;BME280;60618;40.084;32.908;2023-08-06T07:08:25;88985.91;;;31.29;20.37
72585;BME280;60618;40.084;32.908;2023-08-06T07:11:01;88985.59;;;31.53;20.41
72585;BME280;60618;40.084;32.908;2023-08-06T07:13:28;88981.25;;;31.77;20.19
72585;BME280;60618;40.084;32.908;2023-08-06T07:15:56;88980.44;;;32.20;19.66
72585;BME280;60618;40.084;32.908;2023-08-06T07:18:23;88970.03;;;32.34;19.66
72585;BME280;60618;40.084;32.908;2023-08-06T07:20:51;88970.47;;;32.29;19.42
72585;BME280;60618;40.084;32.908;2023-08-06T07:23:24;88979.72;;;32.19;19.04
72585;BME280;60618;40.084;32.908;2023-08-06T07:25:51;88975.66;;;32.36;18.77
72585;BME280;60618;40.084;32.908;2023-08-06T07:28:18;88971.16;;;32.61;19.20
72585;BME280;60618;40.084;32.908;2023-08-06T07:30:45;88969.06;;;32.43;18.50
72585;BME280;60618;40.084;32.908;2023-08-06T07:33:13;88971.34;;;32.65;18.55
72585;BME280;60618;40.084;32.908;2023-08-06T07:35:40;88971.69;;;32.89;19.09
72585;BME280;60618;40.084;32.908;2023-08-06T07:38:07;88975.75;;;33.03;18.95
72585;BME280;60618;40.084;32.908;2023-08-06T07:40:36;88967.63;;;33.41;18.67
72585;BME280;60618;40.084;32.908;2023-08-06T07:43:03;88969.03;;;33.78;17.94
72585;BME280;60618;40.084;32.908;2023-08-06T07:45:36;88973.16;;;33.77;18.40
72585;BME280;60618;40.084;32.908;2023-08-06T07:48:04;88972.03;;;33.84;17.73
72585;BME280;60618;40.084;32.908;2023-08-06T07:50:31;88972.72;;;33.31;17.94
72585;BME280;60618;40.084;32.908;2023-08-06T07:52:59;88966.53;;;33.15;19.06
72585;BME280;60618;40.084;32.908;2023-08-06T07:55:26;88956.69;;;33.10;18.79
72585;BME280;60618;40.084;32.908;2023-08-06T07:57:53;88964.00;;;33.03;18.97
72585;BME280;60618;40.084;32.908;2023-08-06T08:00:21;88954.31;;;33.20;18.79
72585;BME280;60618;40.084;32.908;2023-08-06T08:02:48;88958.34;;;33.17;19.15
72585;BME280;60618;40.084;32.908;2023-08-06T08:05:15;88948.69;;;33.51;18.57
72585;BME280;60618;40.084;32.908;2023-08-06T08:07:42;88959.59;;;33.47;18.58
72585;BME280;60618;40.084;32.908;2023-08-06T08:10:09;88956.63;;;33.25;18.75
72585;BME280;60618;40.084;32.908;2023-08-06T08:12:36;88951.66;;;33.22;18.30
72585;BME280;60618;40.084;32.908;2023-08-06T08:15:03;88951.63;;;33.38;19.04
72585;BME280;60618;40.084;32.908;2023-08-06T08:17:31;88949.31;;;33.68;18.61
72585;BME280;60618;40.084;32.908;2023-08-06T08:19:58;88951.22;;;33.81;18.49
72585;BME280;60618;40.084;32.908;2023-08-06T08:22:25;88943.31;;;33.91;18.47
72585;BME280;60618;40.084;32.908;2023-08-06T08:24:52;88949.06;;;34.35;18.53
72585;BME280;60618;40.084;32.908;2023-08-06T08:27:18;88948.22;;;34.30;17.89
72585;BME280;60618;40.084;32.908;2023-08-06T08:29:45;88937.47;;;33.83;18.85
72585;BME280;60618;40.084;32.908;2023-08-06T08:32:12;88943.78;;;33.68;18.81
72585;BME280;60618;40.084;32.908;2023-08-06T08:34:42;88944.97;;;33.98;19.06
72585;BME280;60618;40.084;32.908;2023-08-06T08:37:13;88937.59;;;34.05;18.92
72585;BME280;60618;40.084;32.908;2023-08-06T08:39:40;88932.78;;;34.05;18.76
72585;BME280;60618;40.084;32.908;2023-08-06T08:42:08;88933.44;;;34.24;18.61
72585;BME280;60618;40.084;32.908;2023-08-06T08:44:37;88935.59;;;34.25;18.93
72585;BME280;60618;40.084;32.908;2023-08-06T08:47:07;88935.31;;;34.37;18.84
72585;BME280;60618;40.084;32.908;2023-08-06T08:49:35;88931.19;;;34.18;18.89
72585;BME280;60618;40.084;32.908;2023-08-06T08:52:03;88931.00;;;33.94;18.68
72585;BME280;60618;40.084;32.908;2023-08-06T08:54:31;88931.59;;;34.10;19.21
72585;BME280;60618;40.084;32.908;2023-08-06T08:56:59;88934.72;;;34.21;19.03
72585;BME280;60618;40.084;32.908;2023-08-06T08:59:27;88935.63;;;34.07;19.23
72585;BME280;60618;40.084;32.908;2023-08-06T09:01:54;88927.41;;;34.47;18.70
72585;BME280;60618;40.084;32.908;2023-08-06T09:04:22;88930.09;;;34.65;18.67
72585;BME280;60618;40.084;32.908;2023-08-06T09:06:51;88926.97;;;34.94;18.82
72585;BME280;60618;40.084;32.908;2023-08-06T09:09:35;88928.16;;;35.09;18.49
72585;BME280;60618;40.084;32.908;2023-08-06T09:12:06;88917.22;;;35.35;17.99
72585;BME280;60618;40.084;32.908;2023-08-06T09:14:36;88922.81;;;35.15;18.01
72585;BME280;60618;40.084;32.908;2023-08-06T09:17:04;88918.00;;;34.76;18.40
72585;BME280;60618;40.084;32.908;2023-08-06T09:19:31;88922.56;;;34.87;18.61
72585;BME280;60618;40.084;32.908;2023-08-06T09:21:59;88913.72;;;35.13;18.32
72585;BME280;60618;40.084;32.908;2023-08-06T09:24:26;88915.66;;;35.08;18.33
72585;BME280;60618;40.084;32.908;2023-08-06T09:26:53;88918.16;;;35.00;18.63
72585;BME280;60618;40.084;32.908;2023-08-06T09:29:20;88898.88;;;35.46;17.72
72585;BME280;60618;40.084;32.908;2023-08-06T09:31:49;88915.19;;;34.74;18.56
72585;BME280;60618;40.084;32.908;2023-08-06T09:34:18;88909.31;;;34.64;18.45
72585;BME280;60618;40.084;32.908;2023-08-06T09:36:52;88911.06;;;34.75;18.51
72585;BME280;60618;40.084;32.908;2023-08-06T09:39:20;88905.69;;;34.59;18.98
72585;BME280;60618;40.084;32.908;2023-08-06T09:41:48;88903.75;;;34.84;18.62
72585;BME280;60618;40.084;32.908;2023-08-06T09:44:22;88898.84;;;35.02;18.46
72585;BME280;60618;40.084;32.908;2023-08-06T09:46:54;88915.50;;;34.62;18.36
72585;BME280;60618;40.084;32.908;2023-08-06T09:49:25;88906.16;;;34.93;18.51
72585;BME280;60618;40.084;32.908;2023-08-06T09:51:53;88895.75;;;35.36;18.03
72585;BME280;60618;40.084;32.908;2023-08-06T09:54:25;88889.44;;;34.69;18.01
72585;BME280;60618;40.084;32.908;2023-08-06T09:56:54;88898.16;;;34.82;16.88
72585;BME280;60618;40.084;32.908;2023-08-06T09:59:25;88889.63;;;34.76;17.75
72585;BME280;60618;40.084;32.908;2023-08-06T10:01:54;88897.09;;;34.91;17.78
72585;BME280;60618;40.084;32.908;2023-08-06T10:04:22;88890.56;;;35.24;17.68
72585;BME280;60618;40.084;32.908;2023-08-06T10:06:54;88891.63;;;35.80;17.05
72585;BME280;60618;40.084;32.908;2023-08-06T10:09:21;88887.78;;;36.39;16.15
72585;BME280;60618;40.084;32.908;2023-08-06T10:11:52;88884.97;;;36.89;16.44
72585;BME280;60618;40.084;32.908;2023-08-06T10:14:26;88865.31;;;37.37;15.67
72585;BME280;60618;40.084;32.908;2023-08-06T10:16:57;88884.31;;;37.19;16.05
72585;BME280;60618;40.084;32.908;2023-08-06T10:19:25;88894.31;;;37.02;15.27
72585;BME280;60618;40.084;32.908;2023-08-06T10:22:15;88883.38;;;36.56;15.75
72585;BME280;60618;40.084;32.908;2023-08-06T10:24:50;88881.91;;;36.03;16.18
72585;BME280;60618;40.084;32.908;2023-08-06T10:27:29;88878.19;;;35.49;16.59
72585;BME280;60618;40.084;32.908;2023-08-06T10:32:53;88874.97;;;35.80;16.46
72585;BME280;60618;40.084;32.908;2023-08-06T10:35:47;88861.78;;;36.53;15.97
72585;BME280;60618;40.084;32.908;2023-08-06T10:38:22;88868.88;;;37.12;16.39
72585;BME280;60618;40.084;32.908;2023-08-06T10:43:26;88871.38;;;37.58;15.50
72585;BME280;60618;40.084;32.908;2023-08-06T10:45:54;88878.66;;;36.61;16.57
72585;BME280;60618;40.084;32.908;2023-08-06T10:48:48;88866.63;;;37.04;16.14
72585;BME280;60618;40.084;32.908;2023-08-06T10:51:16;88872.88;;;37.33;16.13
72585;BME280;60618;40.084;32.908;2023-08-06T10:53:44;88875.28;;;36.38;17.10
72585;BME280;60618;40.084;32.908;2023-08-06T10:56:16;88863.88;;;35.13;17.74
72585;BME280;60618;40.084;32.908;2023-08-06T10:58:47;88854.00;;;34.86;18.10
72585;BME280;60618;40.084;32.908;2023-08-06T11:01:14;88860.09;;;35.24;17.77
72585;BME280;60618;40.084;32.908;2023-08-06T11:03:44;88853.50;;;35.81;17.44
72585;BME280;60618;40.084;32.908;2023-08-06T11:06:17;88855.06;;;36.60;17.42
72585;BME280;60618;40.084;32.908;2023-08-06T11:08:53;88860.78;;;37.22;16.62
72585;BME280;60618;40.084;32.908;2023-08-06T11:11:22;88843.88;;;37.72;16.26
72585;BME280;60618;40.084;32.908;2023-08-06T11:13:51;88852.50;;;38.16;15.91
72585;BME280;60618;40.084;32.908;2023-08-06T11:16:21;88846.66;;;37.12;16.18
72585;BME280;60618;40.084;32.908;2023-08-06T11:18:49;88845.66;;;35.95;16.89
72585;BME280;60618;40.084;32.908;2023-08-06T11:21:19;88846.75;;;35.86;17.21
72585;BME280;60618;40.084;32.908;2023-08-06T11:23:47;88842.78;;;35.93;16.78
72585;BME280;60618;40.084;32.908;2023-08-06T11:26:21;88839.38;;;35.71;16.71
72585;BME280;60618;40.084;32.908;2023-08-06T11:28:49;88837.13;;;35.65;16.76
72585;BME280;60618;40.084;32.908;2023-08-06T11:31:25;88843.47;;;35.24;17.11
72585;BME280;60618;40.084;32.908;2023-08-06T11:33:55;88844.31;;;35.28;17.53
72585;BME280;60618;40.084;32.908;2023-08-06T11:36:32;88840.41;;;35.83;16.86
72585;BME280;60618;40.084;32.908;2023-08-06T11:39:00;88848.75;;;36.07;16.68
72585;BME280;60618;40.084;32.908;2023-08-06T11:41:33;88841.66;;;36.52;16.13
72585;BME280;60618;40.084;32.908;2023-08-06T11:44:00;88858.81;;;36.21;16.21
72585;BME280;60618;40.084;32.908;2023-08-06T11:46:27;88847.69;;;35.95;16.81
72585;BME280;60618;40.084;32.908;2023-08-06T11:48:58;88843.69;;;36.50;16.36
72585;BME280;60618;40.084;32.908;2023-08-06T11:51:26;88845.53;;;37.23;15.88
72585;BME280;60618;40.084;32.908;2023-08-06T11:53:56;88842.00;;;37.81;15.85
72585;BME280;60618;40.084;32.908;2023-08-06T11:56:24;88834.53;;;38.21;14.54
72585;BME280;60618;40.084;32.908;2023-08-06T11:58:52;88828.06;;;37.18;15.46
72585;BME280;60618;40.084;32.908;2023-08-06T12:01:19;88828.72;;;37.47;15.79
72585;BME280;60618;40.084;32.908;2023-08-06T12:03:46;88826.16;;;37.87;15.42
72585;BME280;60618;40.084;32.908;2023-08-06T12:06:13;88822.91;;;38.31;15.21
72585;BME280;60618;40.084;32.908;2023-08-06T12:08:40;88820.19;;;38.71;15.37
72585;BME280;60618;40.084;32.908;2023-08-06T12:11:07;88807.78;;;38.78;15.19
72585;BME280;60618;40.084;32.908;2023-08-06T12:13:33;88806.88;;;38.29;15.57
72585;BME280;60618;40.084;32.908;2023-08-06T12:16:01;88816.63;;;38.30;15.38
72585;BME280;60618;40.084;32.908;2023-08-06T12:18:28;88815.22;;;38.29;15.60
72585;BME280;60618;40.084;32.908;2023-08-06T12:20:55;88811.66;;;38.63;15.31
72585;BME280;60618;40.084;32.908;2023-08-06T12:23:22;88811.47;;;38.91;15.35
72585;BME280;60618;40.084;32.908;2023-08-06T12:25:49;88818.94;;;38.78;15.08
72585;BME280;60618;40.084;32.908;2023-08-06T12:28:16;88811.13;;;38.71;14.86
72585;BME280;60618;40.084;32.908;2023-08-06T12:30:43;88808.31;;;38.69;15.08
72585;BME280;60618;40.084;32.908;2023-08-06T12:33:10;88809.34;;;38.87;14.85
72585;BME280;60618;40.084;32.908;2023-08-06T12:35:36;88796.69;;;39.21;15.27
72585;BME280;60618;40.084;32.908;2023-08-06T12:38:03;88799.38;;;38.74;14.81
72585;BME280;60618;40.084;32.908;2023-08-06T12:40:30;88803.78;;;36.63;16.34
72585;BME280;60618;40.084;32.908;2023-08-06T12:43:05;88811.66;;;37.01;17.24
72585;BME280;60618;40.084;32.908;2023-08-06T12:45:32;88797.25;;;37.68;16.41
72585;BME280;60618;40.084;32.908;2023-08-06T12:48:00;88795.41;;;38.13;16.00
72585;BME280;60618;40.084;32.908;2023-08-06T12:50:27;88798.19;;;38.47;15.49
72585;BME280;60618;40.084;32.908;2023-08-06T12:52:54;88788.97;;;38.39;15.56
72585;BME280;60618;40.084;32.908;2023-08-06T12:55:21;88797.47;;;36.60;16.84
72585;BME280;60618;40.084;32.908;2023-08-06T12:57:47;88798.78;;;35.81;17.55
72585;BME280;60618;40.084;32.908;2023-08-06T13:00:26;88785.91;;;35.20;17.40
72585;BME280;60618;40.084;32.908;2023-08-06T13:02:53;88779.22;;;34.84;17.90